createdAt,value
2019-01-26T00:00:44.608Z,36.70
2019-01-26T00:03:15.856Z,34.23
2019-01-26T00:05:46.747Z,33.97
2019-01-26T00:08:17.643Z,31.60
2019-01-26T00:10:48.559Z,37.03
2019-01-26T00:13:19.455Z,28.07
2019-01-26T00:15:50.473Z,32.10
2019-01-26T00:18:21.695Z,30.00
2019-01-26T00:20:52.579Z,27.67
2019-01-26T00:23:23.510Z,33.83
2019-01-26T00:25:54.487Z,29.90
2019-01-26T00:28:25.716Z,33.17
2019-01-26T00:30:56.671Z,28.70
2019-01-26T00:33:27.573Z,24.37
2019-01-26T00:35:58.783Z,28.67
2019-01-26T00:38:29.755Z,28.17
2019-01-26T00:41:00.785Z,26.73
2019-01-26T00:43:31.687Z,26.57
2019-01-26T00:46:02.582Z,27.30
2019-01-26T00:48:33.553Z,25.53
2019-01-26T00:51:04.686Z,25.17
2019-01-26T00:53:35.695Z,28.13
2019-01-26T00:56:06.762Z,25.30
2019-01-26T00:58:37.660Z,24.83
2019-01-26T01:01:08.578Z,24.37
2019-01-26T01:03:39.544Z,22.40
2019-01-26T01:06:10.517Z,20.87
2019-01-26T01:08:41.419Z,22.57
2019-01-26T01:11:12.494Z,22.93
2019-01-26T01:13:43.696Z,22.57
2019-01-26T01:16:14.582Z,25.03
2019-01-26T01:18:45.555Z,22.07
2019-01-26T01:21:16.489Z,27.73
2019-01-26T01:23:47.689Z,23.93
2019-01-26T01:26:18.612Z,28.43
2019-01-26T01:28:49.503Z,22.93
2019-01-26T01:31:20.446Z,26.67
2019-01-26T01:33:51.444Z,25.27
2019-01-26T01:36:22.404Z,21.37
2019-01-26T01:38:53.336Z,18.80
2019-01-26T01:41:24.535Z,22.97
2019-01-26T01:43:55.575Z,23.70
2019-01-26T01:46:26.547Z,21.60
2019-01-26T01:48:57.421Z,20.50
2019-01-26T01:51:28.734Z,21.43
2019-01-26T01:54:00.212Z,22.47
2019-01-26T01:56:31.471Z,19.33
2019-01-26T01:59:02.403Z,28.10
2019-01-26T02:01:33.360Z,18.80
2019-01-26T02:04:04.572Z,22.37
2019-01-26T02:06:35.549Z,23.63
2019-01-26T02:09:09.573Z,18.53
2019-01-26T02:11:40.915Z,18.60
2019-01-26T02:14:12.186Z,19.13
2019-01-26T02:16:49.926Z,19.30
2019-01-26T02:19:15.996Z,18.90
2019-01-26T02:21:46.952Z,13.47
2019-01-26T02:24:17.848Z,20.13
2019-01-26T02:26:48.769Z,18.70
2019-01-26T02:29:19.781Z,17.53
2019-01-26T02:31:50.736Z,17.43
2019-01-26T02:34:21.971Z,17.33
2019-01-26T02:36:53.239Z,19.20
2019-01-26T02:39:24.497Z,17.20
2019-01-26T02:41:55.380Z,16.67
2019-01-26T02:44:26.626Z,16.27
2019-01-26T02:46:58.081Z,19.10
2019-01-26T02:49:29.337Z,15.37
2019-01-26T02:52:00.333Z,18.13
2019-01-26T02:54:31.271Z,14.13
2019-01-26T02:57:02.282Z,16.30
2019-01-26T02:59:33.295Z,19.73
2019-01-26T03:02:04.997Z,17.57
2019-01-26T03:04:35.957Z,18.37
2019-01-26T03:07:07.468Z,16.57
2019-01-26T03:09:38.393Z,21.00
2019-01-26T03:12:09.407Z,21.17
2019-01-26T03:14:40.309Z,19.63
2019-01-26T03:17:11.339Z,19.20
2019-01-26T03:19:42.361Z,23.13
2019-01-26T03:22:13.654Z,22.10
2019-01-26T03:24:44.577Z,18.80
2019-01-26T03:27:15.563Z,25.33
2019-01-26T03:29:46.565Z,19.17
2019-01-26T03:32:17.487Z,19.40
2019-01-26T03:34:48.408Z,23.57
2019-01-26T03:37:19.338Z,16.73
2019-01-26T03:39:50.309Z,21.53
2019-01-26T03:42:21.234Z,22.30
2019-01-26T03:44:52.133Z,19.30
2019-01-26T03:47:23.137Z,19.30
2019-01-26T03:49:54.085Z,24.27
2019-01-26T03:52:25.027Z,22.33
2019-01-26T03:54:55.979Z,29.17
2019-01-26T03:57:26.985Z,24.23
2019-01-26T03:59:58.370Z,22.60
2019-01-26T04:02:29.321Z,34.93
2019-01-26T04:05:00.904Z,21.40
2019-01-26T04:07:31.972Z,27.47
2019-01-26T04:10:03.179Z,24.70
2019-01-26T04:12:34.130Z,23.50
2019-01-26T04:15:05.672Z,21.50
2019-01-26T04:17:36.874Z,22.73
2019-01-26T04:20:09.995Z,22.43
2019-01-26T04:22:41.039Z,19.67
2019-01-26T04:25:12.103Z,22.80
2019-01-26T04:27:43.069Z,22.30
2019-01-26T04:30:18.068Z,22.20
2019-01-26T04:32:49.180Z,25.93
2019-01-26T04:35:20.104Z,22.17
2019-01-26T04:37:51.066Z,24.63
2019-01-26T04:40:22.045Z,22.27
2019-01-26T04:42:52.973Z,20.30
2019-01-26T04:45:25.284Z,20.60
2019-01-26T04:47:56.165Z,23.83
2019-01-26T04:50:27.090Z,24.47
2019-01-26T04:52:58.059Z,26.60
2019-01-26T04:55:28.986Z,21.40
2019-01-26T04:57:59.943Z,23.10
2019-01-26T05:00:31.344Z,19.20
2019-01-26T05:03:02.534Z,22.93
2019-01-26T05:05:33.513Z,23.50
2019-01-26T05:08:04.873Z,24.63
2019-01-26T05:10:35.874Z,23.87
2019-01-26T05:13:06.815Z,19.87
2019-01-26T05:15:38.052Z,21.83
2019-01-26T05:18:09.018Z,19.20
2019-01-26T05:20:39.933Z,18.20
2019-01-26T05:23:10.936Z,23.47
2019-01-26T05:25:41.836Z,25.20
2019-01-26T05:28:13.039Z,23.13
2019-01-26T05:30:44.044Z,23.87
2019-01-26T05:33:14.978Z,22.60
2019-01-26T05:35:45.906Z,20.80
2019-01-26T05:38:16.792Z,21.10
2019-01-26T05:40:47.693Z,23.03
2019-01-26T05:43:18.623Z,20.13
2019-01-26T05:45:49.553Z,28.60
2019-01-26T05:48:20.519Z,33.73
2019-01-26T05:50:51.406Z,21.67
2019-01-26T05:53:22.612Z,26.50
2019-01-26T05:55:53.553Z,23.20
2019-01-26T05:58:24.491Z,22.70
2019-01-26T06:00:55.798Z,24.70
2019-01-26T06:03:26.709Z,27.17
2019-01-26T06:05:57.620Z,28.97
2019-01-26T06:08:28.547Z,25.10
2019-01-26T06:10:59.506Z,34.13
2019-01-26T06:13:30.457Z,34.67
2019-01-26T06:16:01.351Z,26.53
2019-01-26T06:18:32.254Z,27.60
2019-01-26T06:21:03.218Z,29.47
2019-01-26T06:23:34.475Z,21.53
2019-01-26T06:26:05.547Z,21.93
2019-01-26T06:28:36.461Z,19.27
2019-01-26T06:31:07.387Z,17.17
2019-01-26T06:33:38.302Z,17.70
2019-01-26T06:36:09.230Z,19.77
2019-01-26T06:38:40.241Z,19.90
2019-01-26T06:41:11.210Z,14.00
2019-01-26T06:43:42.099Z,15.37
2019-01-26T06:46:13.017Z,14.83
2019-01-26T06:48:44.818Z,13.77
2019-01-26T06:51:15.729Z,11.00
2019-01-26T06:53:46.700Z,11.00
2019-01-26T06:56:18.572Z,14.17
2019-01-26T06:58:49.870Z,13.07
2019-01-26T07:01:20.827Z,10.97
2019-01-26T07:03:51.773Z,12.13
2019-01-26T07:06:34.148Z,9.30
2019-01-26T07:09:08.563Z,15.87
2019-01-26T07:11:39.573Z,9.77
2019-01-26T07:14:11.093Z,9.60
2019-01-26T07:16:42.065Z,12.27
2019-01-26T07:19:13.003Z,11.70
2019-01-26T07:21:43.910Z,13.33
2019-01-26T07:24:14.813Z,10.40
2019-01-26T07:26:45.788Z,12.17
2019-01-26T07:29:16.970Z,12.53
2019-01-26T07:31:47.855Z,11.40
2019-01-26T07:34:18.859Z,11.47
2019-01-26T07:36:49.820Z,13.07
2019-01-26T07:39:20.771Z,10.53
2019-01-26T07:41:51.729Z,11.10
2019-01-26T07:44:22.922Z,10.13
2019-01-26T07:46:53.846Z,11.17
2019-01-26T07:49:24.827Z,18.97
2019-01-26T07:51:56.012Z,12.10
2019-01-26T07:54:26.953Z,13.73
2019-01-26T07:56:57.885Z,11.10
2019-01-26T07:59:28.792Z,14.17
2019-01-26T08:01:59.731Z,13.33
2019-01-26T08:04:30.713Z,12.23
2019-01-26T08:07:01.618Z,16.60
2019-01-26T08:09:32.510Z,13.47
2019-01-26T08:12:03.570Z,15.93
2019-01-26T08:14:34.490Z,13.97
2019-01-26T08:17:05.370Z,17.53
2019-01-26T08:19:36.341Z,15.43
2019-01-26T08:22:07.242Z,14.37
2019-01-26T08:24:38.192Z,17.13
2019-01-26T08:27:09.158Z,16.43
2019-01-26T08:29:40.070Z,12.60
2019-01-26T08:32:10.955Z,12.60
2019-01-26T08:34:42.213Z,13.00
2019-01-26T08:37:13.118Z,13.47
2019-01-26T08:39:44.101Z,11.67
2019-01-26T08:42:15.349Z,14.10
2019-01-26T08:44:46.273Z,15.90
2019-01-26T08:47:17.234Z,15.90
2019-01-26T08:49:48.491Z,11.20
2019-01-26T08:52:19.757Z,14.07
2019-01-26T08:54:50.669Z,105.30
2019-01-26T08:57:21.648Z,12.80
2019-01-26T08:59:52.596Z,14.33
2019-01-26T09:02:42.421Z,16.03
2019-01-26T09:05:15.503Z,15.00
2019-01-26T09:07:46.567Z,15.13
2019-01-26T09:10:17.497Z,19.23
2019-01-26T09:12:48.405Z,13.50
2019-01-26T09:15:19.376Z,13.90
2019-01-26T09:17:50.336Z,16.80
2019-01-26T09:20:22.477Z,12.63
2019-01-26T09:22:53.481Z,15.10
2019-01-26T09:25:24.489Z,15.60
2019-01-26T09:27:55.715Z,16.93
2019-01-26T09:30:26.697Z,14.60
2019-01-26T09:32:57.581Z,19.70
2019-01-26T09:35:28.496Z,17.33
2019-01-26T09:37:59.503Z,18.77
2019-01-26T09:40:30.487Z,11.60
2019-01-26T09:43:01.401Z,14.70
2019-01-26T09:45:32.770Z,14.17
2019-01-26T09:48:03.980Z,14.13
2019-01-26T09:50:35.263Z,10.70
2019-01-26T09:53:07.128Z,12.17
2019-01-26T09:55:38.050Z,9.00
2019-01-26T09:58:09.020Z,12.90
2019-01-26T10:00:39.967Z,10.70
2019-01-26T10:03:10.940Z,8.73
2019-01-26T10:05:41.836Z,11.50
2019-01-26T10:08:12.891Z,9.80
2019-01-26T10:10:43.906Z,9.27
2019-01-26T10:13:15.008Z,12.43
2019-01-26T10:15:45.941Z,12.10
2019-01-26T10:18:16.857Z,12.20
2019-01-26T10:20:47.772Z,9.97
2019-01-26T10:23:18.717Z,16.03
2019-01-26T10:25:50.041Z,9.50
2019-01-26T10:28:21.074Z,9.00
2019-01-26T10:31:01.371Z,10.40
2019-01-26T10:33:32.489Z,12.43
2019-01-26T10:36:22.295Z,10.97
2019-01-26T10:39:03.923Z,7.10
2019-01-26T10:42:05.868Z,12.00
2019-01-26T10:44:38.516Z,10.67
2019-01-26T10:47:10.264Z,6.70
2019-01-26T10:49:41.175Z,8.37
2019-01-26T10:52:12.218Z,9.47
2019-01-26T10:54:43.259Z,9.40
2019-01-26T10:57:14.208Z,8.83
2019-01-26T10:59:45.467Z,8.70
2019-01-26T11:02:16.886Z,7.50
2019-01-26T11:04:48.001Z,6.00
2019-01-26T11:07:18.999Z,6.90
2019-01-26T11:09:50.260Z,10.57
2019-01-26T11:12:21.242Z,7.43
2019-01-26T11:14:52.213Z,7.40
2019-01-26T11:17:23.453Z,8.40
2019-01-26T11:19:54.366Z,9.90
2019-01-26T11:22:25.622Z,8.30
2019-01-26T11:24:56.522Z,8.07
2019-01-26T11:27:27.448Z,8.40
2019-01-26T11:29:58.411Z,8.50
2019-01-26T11:32:29.385Z,11.30
2019-01-26T11:35:00.684Z,10.10
2019-01-26T11:37:31.629Z,8.93
2019-01-26T11:40:15.805Z,7.37
2019-01-26T11:42:46.995Z,10.33
2019-01-26T11:45:40.382Z,11.67
2019-01-26T11:48:23.461Z,10.67
2019-01-26T11:51:02.628Z,6.77
2019-01-26T11:53:33.528Z,12.80
2019-01-26T11:56:22.160Z,9.43
2019-01-26T11:58:53.179Z,9.13
2019-01-26T12:01:37.479Z,12.77
2019-01-26T12:04:18.082Z,8.30
2019-01-26T12:06:57.070Z,9.67
2019-01-26T12:09:28.265Z,11.53
2019-01-26T12:11:59.272Z,12.50
2019-01-26T12:14:30.537Z,9.40
2019-01-26T12:17:01.829Z,9.13
2019-01-26T12:19:32.832Z,9.23
2019-01-26T12:22:03.768Z,8.60
2019-01-26T12:24:35.118Z,8.50
2019-01-26T12:27:06.495Z,8.40
2019-01-26T12:29:38.016Z,8.43
2019-01-26T12:32:09.019Z,9.13
2019-01-26T12:34:40.300Z,10.17
2019-01-26T12:37:11.262Z,10.90
2019-01-26T12:39:42.828Z,9.20
2019-01-26T12:42:13.721Z,7.83
2019-01-26T12:44:45.386Z,6.33
2019-01-26T12:47:17.143Z,8.27
2019-01-26T12:49:48.232Z,6.20
2019-01-26T12:52:19.429Z,6.33
2019-01-26T12:54:50.827Z,5.80
2019-01-26T12:57:21.861Z,6.80
2019-01-26T12:59:53.104Z,8.70
2019-01-26T13:02:24.075Z,6.67
2019-01-26T13:04:55.117Z,7.40
2019-01-26T13:07:26.034Z,6.77
2019-01-26T13:09:57.316Z,8.13
2019-01-26T13:12:29.172Z,6.90
2019-01-26T13:15:02.643Z,6.33
2019-01-26T13:17:33.579Z,8.43
2019-01-26T13:20:06.719Z,11.00
2019-01-26T13:22:37.690Z,6.77
2019-01-26T13:25:10.060Z,8.87
2019-01-26T13:27:41.293Z,8.67
2019-01-26T13:30:16.996Z,7.83
2019-01-26T13:32:48.565Z,8.10
2019-01-26T13:35:21.069Z,8.17
2019-01-26T13:37:52.082Z,8.97
2019-01-26T13:40:23.194Z,7.47
2019-01-26T13:42:54.532Z,7.50
2019-01-26T13:45:25.566Z,7.33
2019-01-26T13:47:57.051Z,7.90
2019-01-26T13:50:28.018Z,8.10
2019-01-26T13:53:00.061Z,6.70
2019-01-26T13:55:30.976Z,10.20
2019-01-26T13:58:01.967Z,6.20
2019-01-26T14:00:33.489Z,5.83
2019-01-26T14:03:04.973Z,4.83
2019-01-26T14:05:36.078Z,8.90
2019-01-26T14:08:07.424Z,5.50
2019-01-26T14:10:38.347Z,6.20
2019-01-26T14:13:09.659Z,6.50
2019-01-26T14:15:40.603Z,4.90
2019-01-26T14:18:11.550Z,5.97
2019-01-26T14:20:42.876Z,4.57
2019-01-26T14:23:13.814Z,13.27
2019-01-26T14:25:44.771Z,6.30
2019-01-26T14:28:15.723Z,8.83
2019-01-26T14:30:52.438Z,10.57
2019-01-26T14:33:23.485Z,13.80
2019-01-26T14:35:54.486Z,16.70
2019-01-26T14:38:25.992Z,23.47
2019-01-26T14:40:57.310Z,30.53
2019-01-26T14:43:30.438Z,32.03
2019-01-26T14:46:01.462Z,36.73
2019-01-26T14:48:32.425Z,37.53
2019-01-26T14:51:04.115Z,44.70
2019-01-26T14:53:35.564Z,29.33
2019-01-26T14:56:07.076Z,31.80
2019-01-26T14:58:39.718Z,20.57
2019-01-26T15:01:11.860Z,24.37
2019-01-26T15:03:43.083Z,30.77
2019-01-26T15:06:13.990Z,23.33
2019-01-26T15:08:45.046Z,24.63
2019-01-26T15:11:15.927Z,19.57
2019-01-26T15:13:46.914Z,22.20
2019-01-26T15:16:17.886Z,20.50
2019-01-26T15:18:48.843Z,27.80
2019-01-26T15:21:20.058Z,24.43
2019-01-26T15:23:51.513Z,15.73
2019-01-26T15:26:22.489Z,11.10
2019-01-26T15:28:54.427Z,11.83
2019-01-26T15:31:25.566Z,25.33
2019-01-26T15:33:57.673Z,16.33
2019-01-26T15:36:29.029Z,13.40
2019-01-26T15:39:00.294Z,11.00
2019-01-26T15:41:33.444Z,12.07
2019-01-26T15:44:04.343Z,24.60
2019-01-26T15:46:35.332Z,13.20
2019-01-26T15:49:06.272Z,16.90
2019-01-26T15:51:37.284Z,13.77
2019-01-26T15:54:08.258Z,11.30
2019-01-26T15:56:39.190Z,18.90
2019-01-26T15:59:10.924Z,17.37
2019-01-26T16:01:41.891Z,13.10
2019-01-26T16:04:12.860Z,13.60
2019-01-26T16:06:44.103Z,21.70
2019-01-26T16:09:15.370Z,13.70
2019-01-26T16:11:49.102Z,15.40
2019-01-26T16:14:20.184Z,16.53
2019-01-26T16:16:51.696Z,13.50
2019-01-26T16:19:22.696Z,14.97
2019-01-26T16:21:53.749Z,13.90
2019-01-26T16:24:24.702Z,17.70
2019-01-26T16:26:55.702Z,17.00
2019-01-26T16:29:26.722Z,14.27
2019-01-26T16:31:57.942Z,12.80
2019-01-26T16:34:29.341Z,14.53
2019-01-26T16:37:02.126Z,14.67
2019-01-26T16:39:33.373Z,16.80
2019-01-26T16:42:04.816Z,15.40
2019-01-26T16:44:38.634Z,22.47
2019-01-26T16:47:09.718Z,16.10
2019-01-26T16:49:41.422Z,17.10
2019-01-26T16:52:14.067Z,17.73
2019-01-26T16:54:45.159Z,18.83
2019-01-26T16:57:16.505Z,21.40
2019-01-26T16:59:47.429Z,18.43
2019-01-26T17:02:18.347Z,20.03
2019-01-26T17:04:49.443Z,21.23
2019-01-26T17:07:20.411Z,20.10
2019-01-26T17:09:51.305Z,20.23
2019-01-26T17:12:22.462Z,19.30
2019-01-26T17:14:53.382Z,18.97
2019-01-26T17:17:24.281Z,25.23
2019-01-26T17:19:55.268Z,22.70
2019-01-26T17:22:26.179Z,22.10
2019-01-26T17:24:57.121Z,28.90
2019-01-26T17:27:28.460Z,23.70
2019-01-26T17:29:59.384Z,20.47
2019-01-26T17:32:30.391Z,29.67
2019-01-26T17:35:01.985Z,26.57
2019-01-26T17:37:32.938Z,23.10
2019-01-26T17:40:04.100Z,21.70
2019-01-26T17:42:35.047Z,21.60
2019-01-26T17:45:07.337Z,21.03
2019-01-26T17:47:38.267Z,24.63
2019-01-26T17:50:13.423Z,22.37
2019-01-26T17:52:44.343Z,25.50
2019-01-26T17:55:15.500Z,25.30
2019-01-26T17:57:46.637Z,25.60
2019-01-26T18:00:33.214Z,25.00
2019-01-26T18:03:04.303Z,26.70
2019-01-26T18:05:35.335Z,33.57
2019-01-26T18:08:06.492Z,29.20
2019-01-26T18:10:37.474Z,36.27
2019-01-26T18:13:08.849Z,35.30
2019-01-26T18:15:39.766Z,37.53
2019-01-26T18:18:10.823Z,30.77
2019-01-26T18:20:42.060Z,36.33
2019-01-26T18:23:15.214Z,38.03
2019-01-26T18:25:47.392Z,36.13
2019-01-26T18:28:18.518Z,41.70
2019-01-26T18:30:50.261Z,41.13
2019-01-26T18:33:21.210Z,42.97
2019-01-26T18:35:53.941Z,40.23
2019-01-26T18:38:24.907Z,37.03
2019-01-26T18:40:56.439Z,43.10
2019-01-26T18:43:27.440Z,42.60
2019-01-26T18:45:58.966Z,36.90
2019-01-26T18:48:29.915Z,42.00
2019-01-26T18:51:00.888Z,41.03
2019-01-26T18:53:31.851Z,38.57
2019-01-26T18:56:02.781Z,39.67
2019-01-26T18:58:34.400Z,35.20
2019-01-26T19:01:06.830Z,56.83
2019-01-26T19:04:10.351Z,45.80
2019-01-26T19:06:41.341Z,43.87
2019-01-26T19:09:13.873Z,49.07
2019-01-26T19:11:45.939Z,51.20
2019-01-26T19:14:16.906Z,52.03
2019-01-26T19:16:48.283Z,47.37
2019-01-26T19:19:19.271Z,55.10
2019-01-26T19:21:52.202Z,47.53
2019-01-26T19:24:23.200Z,38.23
2019-01-26T19:26:54.452Z,52.37
2019-01-26T19:29:25.363Z,50.00
2019-01-26T19:31:56.319Z,42.57
2019-01-26T19:34:27.292Z,43.80
2019-01-26T19:36:58.900Z,50.07
2019-01-26T19:39:29.948Z,43.97
2019-01-26T19:42:01.181Z,38.40
2019-01-26T19:44:32.546Z,36.53
2019-01-26T19:47:06.417Z,42.07
2019-01-26T19:49:37.921Z,34.00
2019-01-26T19:52:09.330Z,37.13
2019-01-26T19:54:41.450Z,35.60
2019-01-26T19:57:13.054Z,27.60
2019-01-26T19:59:44.311Z,29.90
2019-01-26T20:02:15.676Z,30.90
2019-01-26T20:04:47.258Z,26.37
2019-01-26T20:07:18.565Z,21.70
2019-01-26T20:09:49.615Z,20.20
2019-01-26T20:12:21.989Z,25.73
2019-01-26T20:14:53.254Z,30.70
2019-01-26T20:17:24.328Z,24.03
2019-01-26T20:19:55.556Z,27.80
2019-01-26T20:22:26.892Z,34.43
2019-01-26T20:24:58.166Z,41.03
2019-01-26T20:27:29.161Z,26.37
2019-01-26T20:30:00.227Z,75.03
2019-01-26T20:32:31.659Z,26.77
2019-01-26T20:35:02.660Z,30.60
2019-01-26T20:37:34.527Z,52.43
2019-01-26T20:40:07.097Z,51.53
2019-01-26T20:42:38.129Z,36.90
2019-01-26T20:45:16.626Z,24.10
2019-01-26T20:47:48.208Z,25.77
2019-01-26T20:50:19.294Z,20.17
2019-01-26T20:52:50.352Z,27.90
2019-01-26T20:55:21.289Z,23.73
2019-01-26T20:57:52.254Z,24.73
2019-01-26T21:00:29.832Z,35.40
2019-01-26T21:03:00.923Z,32.60
2019-01-26T21:05:31.934Z,50.87
2019-01-26T21:08:04.169Z,23.57
2019-01-26T21:10:35.519Z,26.03
2019-01-26T21:13:06.935Z,28.20
2019-01-26T21:15:37.904Z,23.60
2019-01-26T21:18:09.186Z,28.80
2019-01-26T21:20:40.127Z,26.70
2019-01-26T21:23:11.714Z,24.50
2019-01-26T21:25:43.614Z,27.93
2019-01-26T21:28:14.584Z,26.77
2019-01-26T21:30:45.507Z,24.67
2019-01-26T21:33:16.768Z,23.30
2019-01-26T21:35:49.949Z,25.23
2019-01-26T21:38:20.900Z,22.13
2019-01-26T21:40:51.902Z,29.33
2019-01-26T21:43:23.356Z,21.20
2019-01-26T21:45:54.344Z,25.13
2019-01-26T21:48:25.314Z,23.40
2019-01-26T21:50:56.911Z,34.83
2019-01-26T21:53:30.026Z,19.70
2019-01-26T21:56:01.317Z,21.77
2019-01-26T21:58:32.285Z,15.83
2019-01-26T22:01:03.294Z,17.43
2019-01-26T22:03:34.298Z,15.77
2019-01-26T22:06:05.504Z,17.27
2019-01-26T22:08:36.714Z,15.17
2019-01-26T22:11:07.786Z,18.60
2019-01-26T22:13:38.785Z,13.83
2019-01-26T22:16:10.391Z,13.40
2019-01-26T22:18:41.466Z,15.20
2019-01-26T22:21:12.423Z,15.83
2019-01-26T22:23:43.425Z,12.70
2019-01-26T22:26:14.496Z,14.57
2019-01-26T22:28:45.417Z,16.00
2019-01-26T22:31:16.351Z,13.33
2019-01-26T22:33:47.308Z,14.70
2019-01-26T22:36:19.177Z,13.47
2019-01-26T22:38:51.319Z,13.23
2019-01-26T22:41:22.554Z,13.37
2019-01-26T22:43:53.651Z,12.67
2019-01-26T22:46:24.645Z,12.60
2019-01-26T22:48:55.546Z,14.03
2019-01-26T22:51:26.466Z,14.50
2019-01-26T22:53:57.478Z,12.87
2019-01-26T22:56:28.449Z,13.97
2019-01-26T22:58:59.457Z,12.60
2019-01-26T23:01:35.494Z,14.50
2019-01-26T23:05:21.354Z,16.23
2019-01-26T23:08:10.805Z,13.03
2019-01-26T23:11:14.789Z,13.80
2019-01-26T23:14:39.368Z,16.57
2019-01-26T23:18:01.207Z,13.63
2019-01-26T23:21:15.989Z,12.17
2019-01-26T23:24:41.716Z,12.53
2019-01-26T23:27:40.746Z,12.80
2019-01-26T23:31:15.652Z,12.37
2019-01-26T23:33:48.189Z,12.80
2019-01-26T23:36:19.417Z,11.37
2019-01-26T23:38:50.402Z,12.70
2019-01-26T23:41:21.762Z,14.37
2019-01-26T23:43:52.676Z,10.10
2019-01-26T23:46:23.765Z,12.93
2019-01-26T23:48:54.760Z,12.40
2019-01-26T23:51:25.721Z,15.63
2019-01-26T23:53:56.754Z,12.17
2019-01-26T23:56:27.727Z,9.73
2019-01-26T23:58:58.732Z,11.60
